Time;durP1;ratioP1;P1;durP2;ratioP2;P2;SDS_P1;SDS_P2;PMS_P1;PMS_P2;Temp;Humidity;BMP_temperature;BMP_pressure;BME280_temperature;BME280_humidity;BME280_pressure;Samples;Min_cycle;Max_cycle;Signal;HPM_P1;HPM_P2
2023/04/18 00:01:37;;;;;;;73.97;46.13;;;;;;;15.37;48.57;93518.50;5016076;28;20046;-93
2023/04/18 00:04:03;;;;;;;69.63;46.72;;;;;;;15.34;48.85;93524.22;4982701;28;20070;-91
2023/04/18 00:06:30;;;;;;;69.07;45.85;;;;;;;15.39;48.45;93523.47;4984865;28;20031;-93
2023/04/18 00:08:55;;;;;;;72.35;48.13;;;;;;;15.45;48.28;93518.81;4968798;28;20817;-93
2023/04/18 00:11:20;;;;;;;71.00;45.78;;;;;;;15.43;48.90;93521.28;4984177;28;20050;-94
2023/04/18 00:13:46;;;;;;;59.67;41.08;;;;;;;15.55;48.37;93520.09;4995700;28;20082;-93
2023/04/18 00:16:12;;;;;;;69.38;44.95;;;;;;;15.51;48.41;93518.84;4983926;28;20050;-88
2023/04/18 00:18:38;;;;;;;65.15;42.42;;;;;;;15.52;48.38;93518.34;5010725;28;20093;-90
2023/04/18 00:21:05;;;;;;;62.08;42.60;;;;;;;15.52;48.35;93517.59;4986365;28;20034;-90
2023/04/18 00:23:32;;;;;;;67.03;44.13;;;;;;;15.41;48.37;93516.31;5019080;28;20074;-90
2023/04/18 00:25:57;;;;;;;65.00;42.90;;;;;;;15.41;48.59;93516.31;4989655;28;20069;-92
2023/04/18 00:28:23;;;;;;;58.83;40.80;;;;;;;15.43;48.70;93527.47;4979542;28;20039;-93
2023/04/18 00:30:48;;;;;;;63.40;43.47;;;;;;;15.42;48.75;93517.06;5018666;28;20401;-89
2023/04/18 00:33:15;;;;;;;62.53;42.03;;;;;;;15.49;48.48;93522.03;5001607;28;20382;-88
2023/04/18 00:35:40;;;;;;;61.00;40.63;;;;;;;15.43;48.51;93510.38;4985660;28;20502;-88
2023/04/18 00:38:05;;;;;;;65.53;42.10;;;;;;;15.39;48.67;93521.50;4969929;28;20062;-90
2023/04/18 00:40:32;;;;;;;57.45;41.30;;;;;;;15.42;48.57;93514.31;5017388;28;20043;-92
2023/04/18 00:42:57;;;;;;;60.80;40.90;;;;;;;15.42;48.31;93517.81;5019225;28;20126;-90
2023/04/18 00:45:23;;;;;;;63.65;41.95;;;;;;;15.46;48.28;93519.56;5018362;28;20050;-93
2023/04/18 00:47:48;;;;;;;61.97;42.30;;;;;;;15.40;48.54;93525.72;5018922;28;20051;-90
2023/04/18 00:50:14;;;;;;;58.38;38.20;;;;;;;15.47;48.59;93516.34;5019448;28;20039;-90
2023/04/18 00:52:40;;;;;;;58.92;39.35;;;;;;;15.47;48.38;93510.88;5018020;28;20039;-89
2023/04/18 00:55:06;;;;;;;57.47;36.72;;;;;;;15.47;48.43;93508.16;5018569;28;20043;-89
2023/04/18 00:57:31;;;;;;;55.10;38.67;;;;;;;15.41;48.46;93510.84;5018152;28;20039;-93
2023/04/18 00:59:58;;;;;;;54.60;38.55;;;;;;;15.42;48.61;93525.22;5001731;28;20134;-91
2023/04/18 01:02:25;;;;;;;55.95;37.90;;;;;;;15.44;48.50;93517.31;5017680;28;20043;-95
2023/04/18 01:04:51;;;;;;;55.67;37.47;;;;;;;15.48;48.58;93523.28;5005335;28;20042;-90
2023/04/18 01:07:16;;;;;;;55.65;35.75;;;;;;;15.45;48.43;93516.09;4990048;28;20128;-92
2023/04/18 01:09:41;;;;;;;55.10;37.72;;;;;;;15.39;48.31;93507.88;5003613;28;20036;-89
2023/04/18 01:12:07;;;;;;;58.00;37.70;;;;;;;15.37;48.30;93521.22;4966214;28;20043;-91
2023/04/18 01:14:32;;;;;;;57.42;38.47;;;;;;;15.32;48.73;93511.09;4986700;28;20035;-92
2023/04/18 01:16:58;;;;;;;56.05;38.10;;;;;;;15.29;48.78;93508.59;4995770;28;20038;-92
2023/04/18 01:19:23;;;;;;;49.35;34.60;;;;;;;15.36;48.45;93505.41;4967692;28;20046;-90
2023/04/18 01:21:49;;;;;;;50.70;33.97;;;;;;;15.41;48.88;93502.69;5018153;28;20046;-92
2023/04/18 01:24:15;;;;;;;54.38;35.40;;;;;;;15.40;48.53;93503.91;5014008;28;20043;-93
2023/04/18 01:26:42;;;;;;;49.70;34.95;;;;;;;15.32;48.44;93494.00;5020054;28;20042;-90
2023/04/18 01:29:08;;;;;;;51.63;34.22;;;;;;;15.40;48.59;93511.34;4975470;28;20038;-91
2023/04/18 01:31:35;;;;;;;50.85;34.83;;;;;;;15.34;48.43;93496.97;5017105;28;20057;-90
2023/04/18 01:34:00;;;;;;;49.95;34.13;;;;;;;15.33;48.44;93503.66;5017450;28;20035;-91
2023/04/18 01:36:26;;;;;;;49.38;35.13;;;;;;;15.37;48.43;93502.16;4984725;28;20054;-88
2023/04/18 01:38:51;;;;;;;48.13;34.85;;;;;;;15.38;48.87;93498.22;5014563;28;20142;-89
2023/04/18 01:41:17;;;;;;;47.03;31.52;;;;;;;15.42;48.59;93503.44;4975906;28;20045;-90
2023/04/18 01:46:07;;;;;;;54.20;34.70;;;;;;;15.40;48.31;93498.47;5012524;23;20046;-88
2023/04/18 01:48:33;;;;;;;47.00;33.22;;;;;;;15.35;48.71;93493.03;4973686;28;20045;-91
2023/04/18 01:51:04;;;;;;;57.13;33.95;;;;;;;15.31;48.44;93498.69;4989142;28;20046;-91
2023/04/18 01:53:30;;;;;;;51.33;33.83;;;;;;;15.31;48.53;93498.69;4972672;28;20126;-94
2023/04/18 01:55:59;;;;;;;47.97;32.10;;;;;;;15.30;48.51;93496.47;5004929;28;20112;-89
2023/04/18 01:58:25;;;;;;;49.38;33.72;;;;;;;15.36;48.41;93499.97;4986520;28;20042;-90
2023/04/18 02:00:52;;;;;;;45.13;31.92;;;;;;;15.34;48.58;93497.72;4971571;28;20054;-88
2023/04/18 02:03:17;;;;;;;49.55;32.97;;;;;;;15.31;48.89;93500.69;5007195;28;20034;-89
2023/04/18 02:05:43;;;;;;;49.22;32.38;;;;;;;15.31;48.48;93497.94;5017837;28;20042;-94
2023/04/18 02:08:10;;;;;;;42.30;31.65;;;;;;;15.35;48.56;93495.75;4986434;28;20073;-91
2023/04/18 02:10:36;;;;;;;44.72;31.98;;;;;;;15.32;48.45;93497.47;4986424;28;20041;-94
2023/04/18 02:13:01;;;;;;;45.75;31.45;;;;;;;15.33;48.49;93495.47;4962730;28;20019;-94
2023/04/18 02:15:26;;;;;;;46.92;31.08;;;;;;;15.29;48.45;93486.78;5005626;28;20057;-92
2023/04/18 02:17:52;;;;;;;44.28;30.73;;;;;;;15.41;48.76;93485.59;5007488;28;20042;-91
2023/04/18 02:20:18;;;;;;;47.78;33.47;;;;;;;15.36;48.43;93483.63;4982745;28;20043;-91
2023/04/18 02:25:09;;;;;;;44.33;29.27;;;;;;;15.39;48.45;93496.97;5047797;23;20025;-91
2023/04/18 02:27:35;;;;;;;42.78;29.08;;;;;;;15.38;48.33;93486.56;5003640;28;20119;-90
2023/04/18 02:30:00;;;;;;;41.13;28.75;;;;;;;15.39;48.26;93486.09;4970943;28;20517;-90
2023/04/18 02:32:25;;;;;;;42.28;28.38;;;;;;;15.40;48.47;93493.03;4987015;28;20042;-90
2023/04/18 02:34:57;;;;;;;45.35;30.63;;;;;;;15.37;48.48;93499.44;4968506;28;20046;-94
2023/04/18 02:37:23;;;;;;;44.58;29.50;;;;;;;15.40;48.63;93498.47;4985683;28;20063;-90
2023/04/18 02:39:49;;;;;;;42.50;29.95;;;;;;;15.35;48.24;93488.31;4983840;28;20031;-92
2023/04/18 02:42:14;;;;;;;40.58;27.30;;;;;;;15.44;48.33;93490.81;4984401;28;20034;-90
2023/04/18 02:44:40;;;;;;;42.20;28.75;;;;;;;15.40;48.56;93492.28;4992268;28;20492;-92
2023/04/18 02:47:05;;;;;;;41.30;28.48;;;;;;;15.35;48.54;93501.19;4987493;28;20057;-92
2023/04/18 02:49:31;;;;;;;39.88;27.10;;;;;;;15.37;48.60;93494.00;4982702;28;20042;-90
2023/04/18 02:51:56;;;;;;;36.85;26.38;;;;;;;15.31;48.44;93497.94;5006078;28;20034;-90
2023/04/18 02:54:23;;;;;;;40.55;28.08;;;;;;;15.33;48.84;93493.50;5023601;28;20049;-90
2023/04/18 02:56:50;;;;;;;41.05;27.83;;;;;;;15.31;48.34;93495.97;5014477;28;20039;-89
2023/04/18 02:59:15;;;;;;;40.05;28.10;;;;;;;15.31;48.67;93501.41;4987778;28;20030;-93
2023/04/18 03:01:41;;;;;;;37.70;26.25;;;;;;;15.36;48.53;93495.25;4986329;28;20046;-90
2023/04/18 03:04:06;;;;;;;40.67;27.70;;;;;;;15.37;48.26;93496.72;4987172;28;20034;-92
2023/04/18 03:06:33;;;;;;;39.33;26.13;;;;;;;15.34;48.57;93500.44;4977062;28;20049;-90
2023/04/18 03:09:05;;;;;;;35.95;26.60;;;;;;;15.34;48.28;93502.44;4963830;28;20039;-93
2023/04/18 03:11:31;;;;;;;37.53;24.70;;;;;;;15.41;48.18;93496.50;4983621;28;20039;-96
2023/04/18 03:13:56;;;;;;;36.78;25.85;;;;;;;15.36;48.55;93489.81;4975729;28;20053;-94
2023/04/18 03:16:22;;;;;;;38.50;26.02;;;;;;;15.41;48.54;93504.66;4987612;28;20054;-93
2023/04/18 03:18:47;;;;;;;37.97;25.35;;;;;;;15.41;48.60;93497.25;4986837;28;20042;-90
2023/04/18 03:21:13;;;;;;;35.03;24.52;;;;;;;15.34;48.42;93500.44;4986134;28;20043;-90
2023/04/18 03:23:39;;;;;;;35.88;24.55;;;;;;;15.44;48.64;93509.13;4974938;28;20057;-93
2023/04/18 03:26:05;;;;;;;33.28;23.33;;;;;;;15.46;48.62;93498.50;5005334;28;20046;-89
2023/04/18 03:28:30;;;;;;;37.67;24.95;;;;;;;15.35;48.37;93503.91;4972380;28;20062;-94
2023/04/18 03:30:56;;;;;;;37.72;26.02;;;;;;;15.37;48.57;93490.56;5024179;28;20030;-88
2023/04/18 03:33:21;;;;;;;35.45;24.60;;;;;;;15.36;48.62;93489.81;5027903;28;20030;-88
2023/04/18 03:35:47;;;;;;;32.72;22.88;;;;;;;15.32;48.70;93500.19;4994333;28;20035;-89
2023/04/18 03:38:12;;;;;;;39.65;24.85;;;;;;;15.35;48.55;93496.50;4976180;28;20031;-88
2023/04/18 03:40:38;;;;;;;34.20;23.90;;;;;;;15.30;48.87;93494.47;4976526;28;20081;-90
2023/04/18 03:43:03;;;;;;;50.88;32.58;;;;;;;15.33;48.74;93492.75;4975892;28;20034;-92
2023/04/18 03:45:29;;;;;;;52.75;28.80;;;;;;;15.35;48.45;93491.03;4995873;28;20051;-91
2023/04/18 03:48:00;;;;;;;87.78;48.20;;;;;;;15.30;48.64;93499.94;4961199;28;20050;-93
2023/04/18 03:50:27;;;;;;;75.40;32.33;;;;;;;15.27;48.63;93502.88;4977631;28;20129;-91
2023/04/18 03:52:54;;;;;;;86.68;35.53;;;;;;;15.28;48.59;93499.66;4978204;28;20046;-91
2023/04/18 03:55:20;;;;;;;36.80;23.48;;;;;;;15.38;48.57;93505.63;4988510;28;20050;-91
2023/04/18 03:57:46;;;;;;;37.45;24.85;;;;;;;15.29;48.49;93506.59;4993469;28;20046;-90
2023/04/18 04:00:12;;;;;;;36.38;24.33;;;;;;;15.27;48.67;93498.19;4973750;28;20755;-91
2023/04/18 04:02:39;;;;;;;46.13;27.05;;;;;;;15.23;48.94;93505.09;4980403;28;20049;-92
2023/04/18 04:05:05;;;;;;;70.05;33.33;;;;;;;15.18;48.93;93505.78;4983563;28;20031;-90
2023/04/18 04:07:31;;;;;;;99.85;37.90;;;;;;;15.23;49.10;93502.34;4965559;28;20193;-94
2023/04/18 04:09:57;;;;;;;100.65;40.28;;;;;;;15.26;49.30;93509.56;4964758;28;20050;-94
2023/04/18 04:12:24;;;;;;;127.68;45.83;;;;;;;15.16;49.42;93513.69;4966862;28;20049;-91
2023/04/18 04:14:49;;;;;;;106.63;40.58;;;;;;;15.21;49.43;93510.25;4991887;28;20037;-93
2023/04/18 04:17:15;;;;;;;129.57;62.85;;;;;;;15.15;49.44;93509.50;4970691;28;20034;-88
2023/04/18 04:19:40;;;;;;;204.43;100.38;;;;;;;15.12;49.04;93510.47;4964199;28;20527;-90
2023/04/18 04:22:06;;;;;;;156.32;77.93;;;;;;;15.19;50.02;93512.72;4960498;28;20347;-90
2023/04/18 04:24:32;;;;;;;185.00;96.30;;;;;;;15.23;49.44;93507.81;4977847;28;20073;-90
2023/04/18 04:26:58;;;;;;;151.35;81.55;;;;;;;15.25;49.40;93513.50;4983467;28;20073;-88
2023/04/18 04:29:25;;;;;;;268.85;103.65;;;;;;;15.37;48.88;93517.78;4972599;28;20178;-89
2023/04/18 04:31:51;;;;;;;205.73;88.32;;;;;;;15.36;49.18;93524.47;4958015;28;20047;-91
2023/04/18 04:34:17;;;;;;;245.52;108.43;;;;;;;15.32;49.41;93511.09;4973431;28;20053;-92
2023/04/18 04:36:43;;;;;;;218.82;109.30;;;;;;;15.28;49.01;93518.72;4972430;28;20050;-90
2023/04/18 04:39:10;;;;;;;211.13;102.47;;;;;;;15.37;49.46;93518.50;4972439;28;20040;-94
2023/04/18 04:41:38;;;;;;;236.98;109.35;;;;;;;15.42;48.80;93528.69;4958304;28;20050;-93
2023/04/18 04:44:03;;;;;;;185.48;102.28;;;;;;;15.40;49.43;93524.97;4971361;28;20129;-89
2023/04/18 04:46:29;;;;;;;210.82;105.95;;;;;;;15.31;49.44;93522.47;4969406;28;20440;-89
2023/04/18 04:48:57;;;;;;;201.60;102.00;;;;;;;15.32;48.84;93524.69;4978798;28;20046;-89
2023/04/18 04:51:23;;;;;;;214.90;105.43;;;;;;;15.33;49.06;93515.28;4972989;28;20453;-90
2023/04/18 04:53:49;;;;;;;330.05;120.05;;;;;;;15.23;49.13;93532.31;4958827;28;20038;-88
2023/04/18 04:56:14;;;;;;;247.57;92.95;;;;;;;15.13;49.61;93522.88;4997876;28;20034;-88
2023/04/18 04:58:40;;;;;;;167.32;75.38;;;;;;;15.15;49.37;93526.59;4984527;28;20053;-90
2023/04/18 05:01:06;;;;;;;148.93;67.50;;;;;;;15.12;49.65;93526.81;4974631;28;20034;-88
2023/04/18 05:03:32;;;;;;;147.75;62.38;;;;;;;15.20;49.71;93525.84;4979782;28;20409;-92
2023/04/18 05:06:00;;;;;;;128.10;62.83;;;;;;;15.18;49.61;93539.22;4982018;28;20046;-89
2023/04/18 05:08:25;;;;;;;149.52;68.05;;;;;;;15.23;49.52;93535.03;4980343;28;20053;-90
2023/04/18 05:10:51;;;;;;;155.13;74.18;;;;;;;15.20;49.26;93536.00;4998883;28;20104;-88
2023/04/18 05:13:16;;;;;;;224.07;91.18;;;;;;;15.19;49.64;93532.53;4979147;28;20053;-93
2023/04/18 05:15:41;;;;;;;205.07;89.22;;;;;;;15.28;49.86;93534.31;4976434;28;20240;-92
2023/04/18 05:18:07;;;;;;;173.55;87.13;;;;;;;15.22;49.14;93534.28;4977791;28;20043;-87
2023/04/18 05:20:32;;;;;;;168.23;76.72;;;;;;;15.30;49.42;93529.13;4982254;28;20066;-89
2023/04/18 05:22:59;;;;;;;166.55;75.88;;;;;;;15.20;48.60;93534.03;4989937;28;20062;-92
2023/04/18 05:25:25;;;;;;;148.23;67.13;;;;;;;15.26;48.49;93531.34;4969003;28;20046;-89
2023/04/18 05:27:51;;;;;;;148.25;69.68;;;;;;;15.23;48.37;93524.16;4969904;28;20038;-87
2023/04/18 05:30:16;;;;;;;145.45;67.47;;;;;;;15.24;48.11;93522.91;4976755;28;20038;-88
2023/04/18 05:32:42;;;;;;;138.13;69.22;;;;;;;15.23;47.71;93527.59;4959283;28;20122;-86
2023/04/18 05:35:07;;;;;;;154.60;67.10;;;;;;;15.24;48.18;93531.81;4954981;28;20043;-86
2023/04/18 05:37:33;;;;;;;145.02;68.32;;;;;;;15.26;48.60;93525.91;4991005;28;20057;-87
2023/04/18 05:39:58;;;;;;;137.13;67.72;;;;;;;15.37;48.37;93528.69;4975971;28;20133;-88
2023/04/18 05:42:24;;;;;;;127.13;66.22;;;;;;;15.31;48.68;93519.75;4974307;28;20038;-89
2023/04/18 05:44:49;;;;;;;131.88;66.13;;;;;;;15.27;48.81;93521.94;4959125;28;20066;-87
2023/04/18 05:47:16;;;;;;;122.50;61.28;;;;;;;15.33;48.80;93522.72;4957745;28;20031;-89
2023/04/18 05:49:42;;;;;;;108.80;56.58;;;;;;;15.24;49.08;93515.50;4961423;28;20038;-87
2023/04/18 05:52:07;;;;;;;98.88;52.25;;;;;;;15.36;49.17;93519.03;4972775;28;20094;-91
2023/04/18 05:54:32;;;;;;;98.03;51.10;;;;;;;15.36;49.12;93517.06;4965277;28;20500;-87
2023/04/18 05:56:58;;;;;;;115.85;55.55;;;;;;;15.26;48.79;93520.44;4977950;28;20088;-90
2023/04/18 05:59:25;;;;;;;104.72;56.45;;;;;;;15.31;48.78;93517.00;4971479;28;20278;-90
2023/04/18 06:01:51;;;;;;;114.03;56.47;;;;;;;15.40;48.66;93535.88;4958095;28;20034;-89
2023/04/18 06:04:17;;;;;;;123.20;68.20;;;;;;;15.44;48.71;93533.66;4989660;28;20425;-90
2023/04/18 06:06:43;;;;;;;131.52;70.28;;;;;;;15.46;49.06;93536.63;4956536;28;20053;-87
2023/04/18 06:09:08;;;;;;;97.53;51.42;;;;;;;15.51;48.87;93535.94;4950971;28;20050;-89
2023/04/18 06:11:34;;;;;;;106.47;58.65;;;;;;;15.60;48.64;93532.25;4974450;28;20628;-91
2023/04/18 06:14:00;;;;;;;87.15;52.00;;;;;;;15.62;48.39;93541.44;4947955;28;20066;-91
2023/04/18 06:16:26;;;;;;;104.85;54.40;;;;;;;15.59;48.68;93544.41;4940267;28;20043;-86
2023/04/18 06:18:51;;;;;;;101.25;51.97;;;;;;;15.61;48.55;93539.22;4975930;28;20574;-89
2023/04/18 06:21:16;;;;;;;103.78;53.60;;;;;;;15.60;48.70;93546.63;4947773;28;20039;-89
2023/04/18 06:23:42;;;;;;;108.30;55.50;;;;;;;15.51;48.39;93541.38;4989390;28;20172;-92
2023/04/18 06:26:08;;;;;;;89.90;51.13;;;;;;;15.54;48.86;93536.94;4970902;28;20039;-87
2023/04/18 06:28:33;;;;;;;113.70;54.20;;;;;;;15.51;48.48;93538.66;4950655;28;20039;-89
2023/04/18 06:30:59;;;;;;;94.32;53.58;;;;;;;15.43;48.78;93535.63;4954033;28;20525;-89
2023/04/18 06:33:24;;;;;;;99.60;52.85;;;;;;;15.47;48.88;93540.13;4951337;28;20065;-88
2023/04/18 06:35:50;;;;;;;92.13;54.20;;;;;;;15.53;48.41;93538.91;4958881;28;20038;-91
2023/04/18 06:38:15;;;;;;;108.13;60.33;;;;;;;15.41;48.47;93546.28;4977155;28;20056;-89
2023/04/18 06:40:42;;;;;;;104.53;59.10;;;;;;;15.52;48.92;93545.59;4987463;28;20045;-89
2023/04/18 06:43:07;;;;;;;108.30;55.90;;;;;;;15.42;49.09;93552.47;4974667;28;20042;-92
2023/04/18 06:45:34;;;;;;;106.85;57.90;;;;;;;15.43;49.18;93551.25;4974750;28;20122;-90
2023/04/18 06:48:02;;;;;;;103.95;57.38;;;;;;;15.42;48.79;93547.75;4976425;28;20038;-91
2023/04/18 06:50:28;;;;;;;112.85;58.65;;;;;;;15.40;48.56;93552.22;4977321;28;20045;-89
2023/04/18 06:52:54;;;;;;;115.72;60.40;;;;;;;15.55;49.03;93547.34;4989243;28;20050;-89
2023/04/18 06:55:20;;;;;;;156.15;69.47;;;;;;;15.49;49.14;93556.72;4966345;28;20559;-91
2023/04/18 06:57:48;;;;;;;133.45;64.55;;;;;;;15.50;49.20;93555.47;4954328;28;20152;-90
2023/04/18 07:00:14;;;;;;;135.60;67.40;;;;;;;15.43;48.71;93560.16;4987602;28;20034;-90
2023/04/18 07:02:40;;;;;;;116.65;66.45;;;;;;;15.41;49.28;93553.69;4971596;28;20057;-89
2023/04/18 07:05:05;;;;;;;137.82;70.95;;;;;;;15.36;48.55;93557.16;4973030;28;20051;-94
2023/04/18 07:07:31;;;;;;;179.98;76.15;;;;;;;15.38;48.55;93560.88;4963409;28;20054;-91
2023/04/18 07:09:57;;;;;;;181.10;82.60;;;;;;;15.49;48.58;93557.47;4974784;28;20052;-91
2023/04/18 07:12:24;;;;;;;251.48;94.82;;;;;;;15.41;48.75;93557.16;4974900;28;20069;-87
2023/04/18 07:14:50;;;;;;;238.18;88.43;;;;;;;15.44;48.98;93560.91;5003114;28;20050;-90
2023/04/18 07:17:16;;;;;;;279.83;99.93;;;;;;;15.41;48.98;93559.91;5001458;28;20051;-89
2023/04/18 07:19:42;;;;;;;222.57;96.40;;;;;;;15.38;48.89;93557.41;4971337;28;20050;-89
2023/04/18 07:22:08;;;;;;;217.75;95.88;;;;;;;15.45;49.07;93559.66;4977071;28;20075;-90
2023/04/18 07:24:33;;;;;;;189.25;86.95;;;;;;;15.46;48.84;93557.69;4978679;28;20046;-92
2023/04/18 07:26:58;;;;;;;219.75;103.95;;;;;;;15.44;48.85;93550.00;4990998;28;20137;-89
2023/04/18 07:29:24;;;;;;;198.32;99.30;;;;;;;15.50;49.54;93560.94;4993574;28;20047;-90
2023/04/18 07:31:49;;;;;;;204.13;101.97;;;;;;;15.52;48.86;93559.22;4974228;28;20092;-90
2023/04/18 07:34:16;;;;;;;200.07;105.85;;;;;;;15.52;48.91;93558.47;4975526;28;20038;-92
2023/04/18 07:36:42;;;;;;;226.50;110.93;;;;;;;15.54;49.22;93564.19;4977136;28;20057;-90
2023/04/18 07:39:09;;;;;;;220.55;116.47;;;;;;;15.49;48.76;93573.06;4961872;28;20489;-89
2023/04/18 07:41:35;;;;;;;239.10;124.13;;;;;;;15.47;48.64;93570.81;4968905;28;20045;-90
2023/04/18 07:44:01;;;;;;;250.27;125.53;;;;;;;15.47;49.26;93572.81;4990442;28;20050;-90
2023/04/18 07:46:28;;;;;;;197.98;105.80;;;;;;;15.46;49.19;93576.75;4976964;28;20038;-91
2023/04/18 07:48:53;;;;;;;223.23;111.57;;;;;;;15.50;48.89;93577.28;4955122;28;20038;-91
2023/04/18 07:51:19;;;;;;;230.65;112.20;;;;;;;15.53;48.92;93585.22;4963630;28;20038;-92
2023/04/18 07:53:54;;;;;;;227.45;117.80;;;;;;;15.53;49.11;93582.50;4975910;28;20043;-93
2023/04/18 07:56:20;;;;;;;219.65;117.68;;;;;;;15.46;48.78;93580.22;4976481;28;20034;-92
2023/04/18 07:58:45;;;;;;;229.65;122.30;;;;;;;15.47;48.91;93584.44;4975394;28;20042;-92
2023/04/18 08:01:14;;;;;;;213.40;113.88;;;;;;;15.38;48.76;93590.06;4957353;28;20511;-90
2023/04/18 08:03:43;;;;;;;199.23;109.28;;;;;;;15.51;49.23;93586.94;4979741;28;20065;-91
2023/04/18 08:06:09;;;;;;;211.88;110.03;;;;;;;15.43;48.80;93597.53;4973384;28;20050;-92
2023/04/18 08:08:34;;;;;;;220.90;115.30;;;;;;;15.48;48.58;93585.19;4957541;28;20042;-92
2023/04/18 08:11:00;;;;;;;233.07;122.55;;;;;;;15.51;48.84;93592.41;4966286;28;20046;-89
2023/04/18 08:13:25;;;;;;;253.80;122.90;;;;;;;15.60;48.86;93587.50;4969467;28;20405;-91
2023/04/18 08:15:51;;;;;;;256.90;127.45;;;;;;;15.52;49.07;93588.44;4965200;28;20046;-88
2023/04/18 08:18:16;;;;;;;275.70;133.10;;;;;;;15.46;48.99;93591.13;4975341;28;20034;-90
2023/04/18 08:20:42;;;;;;;225.68;121.95;;;;;;;15.55;48.90;93593.66;4988003;28;20784;-90
2023/04/18 08:23:08;;;;;;;248.85;133.43;;;;;;;15.54;48.78;93589.44;4970130;28;20042;-91
2023/04/18 08:25:35;;;;;;;250.20;138.27;;;;;;;15.49;48.83;93592.13;4956825;28;20054;-90
2023/04/18 08:28:00;;;;;;;256.15;131.93;;;;;;;15.47;48.83;93589.16;4956480;28;20035;-90
2023/04/18 08:30:25;;;;;;;255.40;134.48;;;;;;;15.51;48.93;93593.16;4973983;28;20073;-92
2023/04/18 08:32:51;;;;;;;229.60;119.38;;;;;;;15.61;49.04;93585.53;4955547;28;20065;-90
2023/04/18 08:35:19;;;;;;;245.23;130.13;;;;;;;15.53;48.86;93595.38;4965936;28;20035;-91
2023/04/18 08:37:45;;;;;;;226.70;118.75;;;;;;;15.62;49.16;93600.66;4964483;28;20101;-90
2023/04/18 08:40:11;;;;;;;224.63;122.80;;;;;;;15.61;48.97;93602.63;5010303;28;20073;-91
2023/04/18 08:42:38;;;;;;;216.02;124.30;;;;;;;15.60;48.59;93609.31;4966787;28;20085;-89
2023/04/18 08:45:04;;;;;;;232.10;117.88;;;;;;;15.59;48.63;93609.81;4954492;28;20049;-91
2023/04/18 08:47:30;;;;;;;220.35;117.47;;;;;;;15.58;48.75;93611.78;4972954;28;20047;-89
2023/04/18 08:49:56;;;;;;;232.70;119.88;;;;;;;15.59;48.44;93610.53;5007470;28;20049;-87
2023/04/18 08:52:22;;;;;;;204.15;111.13;;;;;;;15.63;49.14;93616.50;4992833;28;20767;-89
2023/04/18 08:54:48;;;;;;;225.80;115.97;;;;;;;15.59;48.66;93615.28;4967328;28;20042;-91
2023/04/18 08:57:25;;;;;;;201.52;109.60;;;;;;;15.61;49.01;93613.53;4986246;28;20031;-92
2023/04/18 08:59:52;;;;;;;204.98;100.20;;;;;;;15.50;48.98;93618.16;4959529;28;20046;-90
2023/04/18 09:02:20;;;;;;;198.63;92.32;;;;;;;15.49;48.88;93622.84;4988972;28;20196;-89
2023/04/18 09:04:51;;;;;;;214.38;99.45;;;;;;;15.48;48.68;93620.59;4967433;28;20065;-91
2023/04/18 09:07:19;;;;;;;189.52;90.35;;;;;;;15.55;48.93;93614.72;4976977;28;20042;-90
2023/04/18 09:09:52;;;;;;;218.05;101.72;;;;;;;15.52;48.74;93626.59;4957789;28;20035;-89
2023/04/18 09:12:21;;;;;;;220.60;95.18;;;;;;;15.54;49.27;93619.41;4998335;28;20034;-90
2023/04/18 09:14:50;;;;;;;176.60;92.50;;;;;;;15.57;48.90;93612.28;4991028;28;20412;-90
2023/04/18 09:17:33;;;;;;;180.63;95.22;;;;;;;15.58;49.13;93627.41;4982594;28;20439;-89
2023/04/18 09:19:59;;;;;;;201.10;97.25;;;;;;;15.56;48.42;93621.69;4975564;28;20046;-89
2023/04/18 09:22:25;;;;;;;171.88;85.97;;;;;;;15.59;49.38;93626.16;4956596;28;20042;-90
2023/04/18 09:24:54;;;;;;;175.73;91.88;;;;;;;15.65;48.62;93624.94;4979265;28;20424;-88
2023/04/18 09:27:21;;;;;;;156.52;85.28;;;;;;;15.61;49.14;93624.41;4971667;28;20042;-90
2023/04/18 09:29:48;;;;;;;161.95;90.13;;;;;;;15.64;48.81;93623.44;4975698;28;20390;-89
2023/04/18 09:32:23;;;;;;;200.02;92.07;;;;;;;15.66;48.96;93622.97;4958645;28;20037;-88
2023/04/18 09:34:56;;;;;;;174.68;87.38;;;;;;;15.65;49.08;93621.47;4976247;28;20046;-89
2023/04/18 09:37:22;;;;;;;148.60;84.70;;;;;;;15.59;48.70;93618.72;4962852;28;20062;-90
2023/04/18 09:39:49;;;;;;;160.70;83.18;;;;;;;15.57;48.55;93617.72;4956319;28;20414;-89
2023/04/18 09:42:15;;;;;;;194.38;92.50;;;;;;;15.63;48.83;93619.22;4979798;28;20460;-89
2023/04/18 09:45:05;;;;;;;149.63;88.03;;;;;;;15.70;48.82;93623.50;5010656;28;20038;-89
2023/04/18 09:47:33;;;;;;;228.25;86.68;;;;;;;15.62;48.89;93622.44;5001724;28;20042;-90
2023/04/18 09:49:59;;;;;;;160.27;79.57;;;;;;;15.55;48.73;93623.63;4957148;28;20051;-90
2023/04/18 09:52:24;;;;;;;160.77;84.40;;;;;;;15.57;48.71;93607.59;4967504;28;20436;-88
2023/04/18 09:54:57;;;;;;;177.20;86.82;;;;;;;15.61;48.65;93618.22;4975241;28;20049;-90
2023/04/18 09:57:25;;;;;;;224.82;89.13;;;;;;;15.67;48.64;93616.28;4981043;28;20417;-88
2023/04/18 09:59:52;;;;;;;273.33;91.35;;;;;;;15.69;48.71;93622.75;4973763;28;20042;-88
2023/04/18 10:02:21;;;;;;;173.82;80.00;;;;;;;15.72;49.23;93618.31;4955588;28;20047;-89
2023/04/18 10:04:50;;;;;;;179.27;81.53;;;;;;;15.64;48.57;93637.06;4988053;28;20038;-92
2023/04/18 10:07:16;;;;;;;189.93;83.45;;;;;;;15.55;48.83;93628.34;4972086;28;20070;-89
2023/04/18 10:09:44;;;;;;;184.68;84.07;;;;;;;15.53;48.88;93637.00;4947475;28;20120;-90
2023/04/18 10:12:11;;;;;;;168.52;78.47;;;;;;;15.60;48.79;93630.34;4972285;28;20042;-88
2023/04/18 10:14:37;;;;;;;183.00;86.10;;;;;;;15.54;48.90;93632.28;4989353;28;20052;-88
2023/04/18 10:17:02;;;;;;;190.38;84.40;;;;;;;15.60;49.11;93633.09;4959537;28;20521;-88
2023/04/18 10:19:28;;;;;;;173.88;81.28;;;;;;;15.56;48.92;93636.06;4954249;28;20461;-94
2023/04/18 10:21:57;;;;;;;179.77;80.35;;;;;;;15.54;48.98;93627.59;4953708;28;20516;-88
2023/04/18 10:24:46;;;;;;;145.02;75.72;;;;;;;15.60;49.28;93635.81;4987055;28;20588;-86
2023/04/18 10:27:11;;;;;;;158.63;75.70;;;;;;;15.57;48.95;93629.38;4982843;28;20053;-92
2023/04/18 10:29:51;;;;;;;151.73;76.07;;;;;;;15.55;48.79;93620.91;5001214;28;20042;-87
2023/04/18 10:32:19;;;;;;;150.25;74.18;;;;;;;15.58;49.13;93630.13;5002387;28;20035;-87
2023/04/18 10:34:52;;;;;;;143.63;70.72;;;;;;;15.55;48.76;93622.88;4961155;28;20059;-92
2023/04/18 10:37:17;;;;;;;134.20;67.32;;;;;;;15.53;48.79;93630.81;4941550;28;20043;-87
2023/04/18 10:39:51;;;;;;;134.27;67.05;;;;;;;15.56;49.13;93613.50;4964112;28;20405;-88
2023/04/18 10:42:16;;;;;;;126.07;65.22;;;;;;;15.59;48.89;93607.81;4978597;28;20035;-87
2023/04/18 10:44:42;;;;;;;118.03;62.53;;;;;;;15.54;48.93;93611.25;4984372;28;20049;-87
2023/04/18 10:47:07;;;;;;;116.18;60.20;;;;;;;15.63;48.79;93610.31;4958769;28;20043;-88
2023/04/18 10:49:36;;;;;;;128.05;63.85;;;;;;;15.57;48.74;93615.75;4979357;28;20085;-88
2023/04/18 10:52:02;;;;;;;118.10;59.80;;;;;;;15.62;48.87;93612.28;4975286;28;20066;-87
2023/04/18 10:54:36;;;;;;;102.38;59.13;;;;;;;15.66;49.22;93612.06;4973981;28;20043;-87
2023/04/18 10:57:03;;;;;;;118.65;60.17;;;;;;;15.62;48.71;93622.44;4982245;28;20129;-88
2023/04/18 10:59:29;;;;;;;123.88;63.40;;;;;;;15.60;48.77;93612.03;4971899;28;20046;-88
2023/04/18 11:01:56;;;;;;;189.55;70.35;;;;;;;15.63;48.73;93611.06;4954728;28;20409;-88
2023/04/18 11:04:22;;;;;;;132.85;60.20;;;;;;;15.62;48.75;93609.56;4987329;28;20125;-87
2023/04/18 11:06:55;;;;;;;119.38;57.28;;;;;;;15.67;48.89;93619.75;4971797;28;20038;-87
2023/04/18 11:09:21;;;;;;;120.43;58.70;;;;;;;15.63;49.01;93610.31;4975369;28;20030;-87
2023/04/18 11:11:48;;;;;;;124.15;59.13;;;;;;;15.58;48.75;93608.31;4974454;28;20093;-89
2023/04/18 11:14:13;;;;;;;109.30;57.05;;;;;;;15.61;49.06;93607.31;4957466;28;20042;-88